Time;durP1;ratioP1;P1;durP2;ratioP2;P2;SDS_P1;SDS_P2;PMS_P1;PMS_P2;Temp;Humidity;BMP_temperature;BMP_pressure;BME280_temperature;BME280_humidity;BME280_pressure;Samples;Min_cycle;Max_cycle;Signal;HPM_P1;HPM_P2
2022/11/05 00:09:32;;;;;;;23.62;18.02;;;;;;;9.48;81.21;99954.75;1646128;85;21096;-81
2022/11/05 00:18:24;;;;;;;21.73;17.48;;;;;;;9.44;81.28;99957.00;1653727;85;21091;-81
2022/11/05 00:27:17;;;;;;;23.77;18.52;;;;;;;9.37;81.34;99951.12;1648308;85;21105;-81
2022/11/05 00:30:03;;;;;;;22.87;18.07;;;;;;;9.34;81.41;99948.63;1660546;84;21061;-81
2022/11/05 00:32:50;;;;;;;30.47;20.87;;;;;;;9.34;81.42;99944.77;1655168;85;21061;-81
2022/11/05 00:35:34;;;;;;;25.92;19.20;;;;;;;9.33;81.44;99941.78;1656782;84;21073;-81
2022/11/05 00:38:20;;;;;;;26.80;20.37;;;;;;;9.31;81.46;99947.41;1638044;84;21271;-81
2022/11/05 00:41:05;;;;;;;27.02;20.32;;;;;;;9.30;81.50;99952.16;1649163;85;21063;-81
2022/11/05 00:49:28;;;;;;;26.07;20.30;;;;;;;9.28;81.55;99957.35;1646678;85;21045;-81
2022/11/05 00:49:39;;;;;;;;;;;;;;;9.28;81.58;99956.50;1637868;85;21098;-81
2022/11/05 00:55:41;;;;;;;27.17;21.00;;;;;;;9.29;81.62;99965.50;1581791;89;21165;-81
2022/11/05 00:58:28;;;;;;;27.00;21.25;;;;;;;9.28;81.63;99968.11;1619527;87;21091;-81
2022/11/05 01:01:13;;;;;;;31.02;22.80;;;;;;;9.27;81.67;99965.13;1619223;86;21111;-81
2022/11/05 01:03:58;;;;;;;31.87;21.80;;;;;;;9.26;81.69;99964.28;1646266;85;21124;-81
2022/11/05 01:06:42;;;;;;;27.42;20.88;;;;;;;9.26;81.69;99964.72;1656287;85;21626;-81
2022/11/05 01:09:27;;;;;;;28.60;20.97;;;;;;;9.26;81.77;99970.73;1642520;85;21405;-81
2022/11/05 01:12:13;;;;;;;29.98;22.07;;;;;;;9.27;81.73;99968.99;1646651;83;21136;-81
2022/11/05 01:14:59;;;;;;;28.10;21.45;;;;;;;9.26;81.76;99974.59;1643073;85;21134;-81
2022/11/05 01:17:43;;;;;;;23.75;20.43;;;;;;;9.27;81.77;99980.60;1646452;85;21073;-82
2022/11/05 01:20:29;;;;;;;25.00;20.62;;;;;;;9.26;81.81;99986.64;1662169;84;21627;-82
2022/11/05 01:23:16;;;;;;;26.90;20.68;;;;;;;9.26;81.81;99979.75;1639278;84;21069;-81
2022/11/05 01:26:01;;;;;;;28.42;20.68;;;;;;;9.26;81.87;99973.75;1651768;85;21339;-80
2022/11/05 01:28:52;;;;;;;27.15;21.23;;;;;;;9.27;81.87;99971.13;1654424;85;21091;-80
2022/11/05 01:31:37;;;;;;;26.20;20.65;;;;;;;9.27;81.89;99973.72;1637246;83;21534;-80
2022/11/05 01:34:22;;;;;;;27.77;21.23;;;;;;;9.27;81.95;99977.58;1662879;85;21523;-80
2022/11/05 01:37:08;;;;;;;25.95;19.95;;;;;;;9.27;81.96;99977.58;1654534;84;21349;-80
2022/11/05 01:39:52;;;;;;;21.48;17.70;;;;;;;9.28;82.00;99978.43;1652194;85;21049;-80
2022/11/05 01:42:38;;;;;;;19.87;17.65;;;;;;;9.26;81.96;99984.91;1658850;85;20993;-80
2022/11/05 01:45:26;;;;;;;21.23;17.32;;;;;;;9.25;82.01;99984.50;1656775;85;21110;-80
2022/11/05 01:48:31;;;;;;;18.85;16.85;;;;;;;9.25;81.95;99989.66;1638183;85;21106;-80
2022/11/05 01:51:21;;;;;;;21.45;17.35;;;;;;;9.25;82.04;99987.08;1643644;84;21118;-81
2022/11/05 01:54:12;;;;;;;20.90;17.10;;;;;;;9.24;82.08;99991.84;1650748;84;21057;-81
2022/11/05 01:57:01;;;;;;;20.23;16.95;;;;;;;9.24;82.09;99993.56;1651340;85;21065;-81
2022/11/05 01:59:51;;;;;;;22.75;17.25;;;;;;;9.23;82.10;99998.31;1648201;85;21634;-81
2022/11/05 02:02:36;;;;;;;20.70;17.37;;;;;;;9.21;82.15;99998.34;1650303;85;21077;-81
2022/11/05 02:05:22;;;;;;;21.10;17.67;;;;;;;9.21;82.19;100015.11;1637191;85;21132;-81
2022/11/05 02:08:12;;;;;;;22.73;18.40;;;;;;;9.21;82.22;100017.69;1657802;84;21369;-81
2022/11/05 02:10:58;;;;;;;24.90;19.27;;;;;;;9.20;82.24;100020.30;1655746;85;21817;-81
2022/11/05 02:13:43;;;;;;;25.77;20.40;;;;;;;9.22;82.25;100027.13;1662418;85;21112;-81
2022/11/05 02:16:51;;;;;;;26.85;20.27;;;;;;;9.22;82.29;100027.13;1639473;84;21676;-81
2022/11/05 02:20:27;;;;;;;24.92;20.62;;;;;;;9.22;82.31;100033.58;1650929;85;21513;-81
2022/11/05 02:23:42;;;;;;;25.20;19.37;;;;;;;9.25;82.36;100038.68;1660545;85;21121;-81
2022/11/05 02:27:03;;;;;;;28.25;21.42;;;;;;;9.27;82.39;100046.39;1639922;85;21116;-81
2022/11/05 02:30:22;;;;;;;28.27;20.20;;;;;;;9.29;82.41;100049.79;1647392;85;21100;-81
2022/11/05 02:33:38;;;;;;;28.23;22.10;;;;;;;9.29;82.39;100048.50;1647672;85;21049;-81
2022/11/05 02:36:34;;;;;;;28.65;21.62;;;;;;;9.29;82.42;100049.79;1607545;88;21079;-81
2022/11/05 02:39:50;;;;;;;;;;;;;;;9.29;82.47;100045.48;1620490;87;21103;-81
2022/11/05 02:42:49;;;;;;;30.27;20.90;;;;;;;9.29;82.65;100036.45;1613005;87;20239;-81
2022/11/05 02:46:04;;;;;;;31.33;22.10;;;;;;;9.28;82.55;100045.06;1622788;88;21675;-81
2022/11/05 02:49:27;;;;;;;34.83;22.10;;;;;;;9.27;82.53;100045.95;1613758;86;21147;-81
2022/11/05 02:52:38;;;;;;;30.80;22.90;;;;;;;9.28;82.57;100048.94;1616021;86;21074;-81
2022/11/05 02:55:46;;;;;;;29.52;22.48;;;;;;;9.26;82.58;100049.41;1615242;87;21575;-81
2022/11/05 02:58:33;;;;;;;32.98;23.77;;;;;;;9.25;82.62;100049.00;1620073;87;21120;-81
2022/11/05 03:01:18;;;;;;;30.48;22.65;;;;;;;9.27;82.68;100047.67;1611973;87;21127;-81
2022/11/05 03:04:07;;;;;;;33.63;23.52;;;;;;;9.28;82.68;100057.12;1616536;87;21100;-81
2022/11/05 03:07:15;;;;;;;35.05;24.15;;;;;;;9.28;82.69;100055.39;1621185;87;21053;-81
2022/11/05 03:10:36;;;;;;;32.30;23.38;;;;;;;9.28;82.74;100061.84;1615863;87;21585;-81
2022/11/05 03:13:38;;;;;;;35.05;24.86;;;;;;;9.28;82.71;100065.70;1601520;86;10000438;-81
2022/11/05 03:16:42;;;;;;;34.43;23.52;;;;;;;9.30;82.90;100070.84;1613982;88;21108;-81
2022/11/05 03:19:49;;;;;;;35.45;23.10;;;;;;;9.31;82.76;100074.27;1623058;86;21127;-81
2022/11/05 03:22:42;;;;;;;34.15;22.73;;;;;;;9.32;82.81;100084.56;1610278;88;21267;-81
2022/11/05 03:25:29;;;;;;;28.40;21.52;;;;;;;9.31;82.83;100085.44;1614586;87;20977;-80
2022/11/05 03:28:16;;;;;;;28.90;21.15;;;;;;;9.32;82.84;100085.00;1619536;87;20961;-80
2022/11/05 03:31:00;;;;;;;;;;;;;;;9.32;82.84;100089.72;1616990;87;21021;-80
2022/11/05 03:33:47;;;;;;;24.67;18.62;;;;;;;9.33;83.04;100094.44;1614829;87;20210;-80
2022/11/05 03:36:41;;;;;;;;;;;;;;;9.32;82.90;100099.19;1651190;85;21133;-80
2022/11/05 03:39:33;;;;;;;22.65;16.40;;;;;;;9.33;83.14;100102.18;1642741;84;20194;-80
2022/11/05 03:42:24;;;;;;;21.65;16.32;;;;;;;9.34;82.98;100115.49;1640689;85;20970;-80
2022/11/05 03:45:20;;;;;;;24.57;17.17;;;;;;;9.33;82.98;100115.08;1646205;85;20981;-80
2022/11/05 03:48:09;;;;;;;19.87;16.60;;;;;;;9.36;83.04;100130.50;1650727;85;21089;-80
2022/11/05 03:51:22;;;;;;;19.12;14.65;;;;;;;9.36;83.04;100130.50;1646335;85;22412;-80
2022/11/05 03:54:08;;;;;;;20.92;14.90;;;;;;;9.37;83.04;100135.60;1644026;85;21042;-80
2022/11/05 03:57:19;;;;;;;18.15;14.40;;;;;;;9.38;83.07;100140.33;1658501;85;21514;-80
2022/11/05 04:00:08;;;;;;;15.85;12.95;;;;;;;9.38;83.10;100147.62;1649290;85;21525;-80
2022/11/05 04:02:54;;;;;;;15.53;12.15;;;;;;;9.38;83.13;100151.50;1655331;85;21045;-80
2022/11/05 04:05:40;;;;;;;13.40;12.00;;;;;;;9.40;83.17;100155.34;1644553;85;21054;-80
2022/11/05 04:14:31;;;;;;;11.95;10.75;;;;;;;9.42;83.24;100166.05;1645043;85;21045;-80
2022/11/05 04:17:16;;;;;;;11.85;10.43;;;;;;;9.44;83.25;100165.58;1633747;85;21072;-80
2022/11/05 04:26:10;;;;;;;10.10;9.10;;;;;;;9.47;83.32;100179.72;1638960;85;21513;-80
2022/11/05 04:31:59;;;;;;;10.35;9.00;;;;;;;9.52;83.35;100181.77;1650296;85;21079;-80
2022/11/05 04:34:44;;;;;;;8.38;7.00;;;;;;;9.53;83.39;100182.18;1642118;85;21635;-80
2022/11/05 04:37:29;;;;;;;5.70;5.20;;;;;;;9.54;83.37;100181.74;1639576;85;21171;-80
2022/11/05 04:40:14;;;;;;;7.03;4.75;;;;;;;9.53;83.43;100191.22;1648178;85;21616;-80
2022/11/05 04:43:00;;;;;;;6.12;5.00;;;;;;;9.53;83.46;100195.09;1652797;84;21057;-80
2022/11/05 04:45:45;;;;;;;4.40;4.00;;;;;;;9.55;83.51;100195.06;1641862;85;21072;-80
2022/11/05 04:48:30;;;;;;;4.60;4.15;;;;;;;9.55;83.53;100199.78;1641467;84;21133;-80
2022/11/05 04:51:16;;;;;;;3.80;3.37;;;;;;;9.56;83.56;100200.20;1636750;85;21074;-80
2022/11/05 04:54:01;;;;;;;3.45;2.70;;;;;;;9.57;83.58;100201.89;1649361;85;21016;-80
2022/11/05 04:56:46;;;;;;;2.50;2.07;;;;;;;9.59;83.59;100199.28;1661597;85;21126;-80
2022/11/05 04:59:31;;;;;;;2.17;1.70;;;;;;;9.59;83.60;100203.16;1652015;84;21060;-80
2022/11/05 05:02:17;;;;;;;1.82;1.62;;;;;;;9.58;83.60;100197.14;1631325;85;21077;-80
2022/11/05 05:05:03;;;;;;;1.98;1.32;;;;;;;9.57;83.59;100198.02;1659664;85;21063;-80
2022/11/05 05:23:38;;;;;;;3.33;1.40;;;;;;;9.85;84.00;100248.71;1695749;82;21019;-79
2022/11/05 05:26:23;;;;;;;3.70;1.30;;;;;;;9.83;84.04;100253.49;1685504;82;21005;-80
2022/11/05 05:29:10;;;;;;;1.65;1.50;;;;;;;9.81;84.04;100260.41;1679567;83;20996;-79
2022/11/05 05:31:54;;;;;;;3.47;1.25;;;;;;;9.77;84.08;100261.34;1676025;83;20981;-79
2022/11/05 05:34:40;;;;;;;4.97;1.55;;;;;;;9.75;84.09;100271.70;1681592;83;21029;-79
2022/11/05 05:37:25;;;;;;;5.45;1.02;;;;;;;9.73;84.12;100271.32;1671962;83;20958;-79
2022/11/05 05:40:11;;;;;;;1.62;1.05;;;;;;;9.69;84.02;100270.52;1699939;82;21637;-79
2022/11/05 05:42:56;;;;;;;1.97;1.03;;;;;;;9.66;84.04;100277.47;1699195;82;21526;-79
2022/11/05 05:45:41;;;;;;;2.65;0.80;;;;;;;9.61;84.03;100281.42;1692383;82;21013;-80
2022/11/05 05:48:26;;;;;;;3.27;1.10;;;;;;;9.56;84.03;100296.14;1672032;83;21067;-80
2022/11/05 05:51:11;;;;;;;4.55;1.00;;;;;;;9.53;84.08;100304.78;1696179;83;21750;-80
2022/11/05 05:53:57;;;;;;;1.77;0.70;;;;;;;9.51;84.05;100310.84;1673368;84;21038;-80
2022/11/05 05:56:44;;;;;;;6.05;0.80;;;;;;;9.47;84.02;100308.75;1677772;83;21055;-79
2022/11/05 05:59:29;;;;;;;2.35;1.05;;;;;;;9.44;84.04;100324.72;1674032;83;21064;-79
2022/11/05 06:02:14;;;;;;;3.35;1.00;;;;;;;9.41;84.02;100341.11;1670527;84;21569;-80
2022/11/05 06:04:59;;;;;;;2.08;0.72;;;;;;;9.38;84.05;100348.05;1669753;84;21522;-79
2022/11/05 06:07:45;;;;;;;2.37;0.60;;;;;;;9.37;84.08;100341.18;1696163;83;21543;-79
2022/11/05 06:10:30;;;;;;;4.30;1.10;;;;;;;9.35;84.09;100345.55;1574603;80;5001727;-79
2022/11/05 06:13:15;;;;;;;2.90;0.53;;;;;;;9.35;84.11;100351.55;1668389;82;21056;-79
2022/11/05 06:16:06;;;;;;;1.57;0.50;;;;;;;9.33;84.13;100348.15;1645778;85;21088;-79
2022/11/05 06:18:51;;;;;;;4.33;1.15;;;;;;;9.30;84.13;100361.09;1668005;85;20985;-80
2022/11/05 06:21:35;;;;;;;4.00;1.42;;;;;;;9.30;84.18;100376.58;1646050;85;20913;-79
2022/11/05 06:24:20;;;;;;;4.05;1.67;;;;;;;9.31;84.18;100390.33;1666861;83;20993;-79
2022/11/05 06:27:05;;;;;;;4.10;1.52;;;;;;;9.30;84.21;100394.64;1643933;85;21076;-79
2022/11/05 06:29:51;;;;;;;5.50;1.27;;;;;;;9.31;84.21;100399.36;1677041;83;21067;-79
2022/11/05 06:32:36;;;;;;;3.90;1.10;;;;;;;9.31;84.24;100404.52;1672711;83;21057;-79
2022/11/05 06:35:21;;;;;;;1.80;1.02;;;;;;;9.30;84.21;100408.83;1663326;83;21073;-79
2022/11/05 06:38:06;;;;;;;2.92;1.02;;;;;;;9.29;84.27;100416.16;1645391;86;21536;-79
2022/11/05 06:40:51;;;;;;;4.58;1.20;;;;;;;9.30;84.27;100419.15;1671585;83;20993;-79
2022/11/05 06:43:37;;;;;;;3.58;1.02;;;;;;;9.32;84.31;100418.69;1649194;84;21099;-79
2022/11/05 06:46:22;;;;;;;2.12;0.90;;;;;;;9.31;84.28;100422.14;1679844;82;21029;-79
2022/11/05 06:49:07;;;;;;;3.45;0.90;;;;;;;9.34;84.33;100425.12;1634555;86;21036;-79
2022/11/05 06:51:53;;;;;;;4.92;1.00;;;;;;;9.33;84.32;100431.16;1674621;83;21004;-81
2022/11/05 06:54:38;;;;;;;5.78;1.62;;;;;;;9.34;84.32;100441.89;1650428;85;21128;-81
2022/11/05 06:57:23;;;;;;;4.37;1.05;;;;;;;9.35;84.34;100452.62;1682761;83;21049;-81
2022/11/05 07:00:09;;;;;;;2.70;1.10;;;;;;;9.36;84.36;100451.75;1639770;85;21475;-81
2022/11/05 07:02:57;;;;;;;5.12;0.93;;;;;;;9.37;84.41;100450.41;1680314;83;21607;-81
2022/11/05 07:05:47;;;;;;;4.67;0.85;;;;;;;9.39;84.41;100446.52;1674141;83;21055;-81
2022/11/05 07:08:35;;;;;;;5.75;1.27;;;;;;;9.39;84.42;100440.92;1624718;84;21036;-81
2022/11/05 07:11:20;;;;;;;2.30;1.00;;;;;;;9.41;84.42;100441.75;1654486;84;20984;-81
2022/11/05 07:14:05;;;;;;;7.90;1.17;;;;;;;9.44;84.45;100449.45;1656802;84;21560;-81
2022/11/05 07:16:50;;;;;;;5.28;0.88;;;;;;;9.47;84.50;100458.44;1636203;85;21656;-81
2022/11/05 07:19:35;;;;;;;7.15;1.85;;;;;;;9.51;84.49;100467.00;1666819;83;21100;-81
2022/11/05 07:22:21;;;;;;;4.97;1.10;;;;;;;9.53;84.48;100482.88;1690505;83;21104;-81
2022/11/05 07:25:07;;;;;;;4.37;1.20;;;;;;;9.54;84.50;100492.33;1682410;83;21056;-81
2022/11/05 07:27:52;;;;;;;3.60;1.05;;;;;;;9.56;84.50;100491.02;1646543;84;21076;-79
2022/11/05 07:30:37;;;;;;;3.37;1.10;;;;;;;9.57;84.56;100488.85;1683136;83;21081;-79
2022/11/05 07:33:22;;;;;;;2.33;0.65;;;;;;;9.58;84.52;100481.53;1653962;84;21131;-79
2022/11/05 07:36:08;;;;;;;5.53;1.20;;;;;;;9.61;84.52;100486.65;1682575;83;21037;-79
2022/11/05 07:38:53;;;;;;;3.77;1.10;;;;;;;9.63;84.52;100487.05;1677427;83;21054;-79
2022/11/05 07:41:39;;;;;;;8.55;1.00;;;;;;;9.69;84.56;100493.84;1649974;84;21634;-79
2022/11/05 07:44:24;;;;;;;8.60;1.37;;;;;;;9.71;84.54;100506.30;1645529;84;21636;-79
2022/11/05 07:47:09;;;;;;;2.85;1.10;;;;;;;9.72;84.55;100513.17;1677474;83;21047;-79
2022/11/05 07:49:54;;;;;;;3.20;1.15;;;;;;;9.73;84.55;100512.30;1645605;84;21327;-79
2022/11/05 07:52:39;;;;;;;4.78;1.10;;;;;;;9.77;84.63;100515.25;1642466;84;21403;-80
2022/11/05 07:55:24;;;;;;;2.87;0.90;;;;;;;9.80;84.61;100513.06;1674676;83;21057;-80
2022/11/05 07:58:10;;;;;;;3.55;1.15;;;;;;;9.85;84.63;100515.14;1679475;83;21139;-78
2022/11/05 08:00:56;;;;;;;5.12;0.80;;;;;;;9.91;84.65;100524.06;1680972;83;20925;-78
2022/11/05 08:03:41;;;;;;;4.55;1.10;;;;;;;9.96;84.65;100518.39;1681774;83;21250;-81
2022/11/05 08:06:26;;;;;;;3.52;1.12;;;;;;;10.02;84.68;100517.00;1678916;83;20933;-81
2022/11/05 08:09:11;;;;;;;5.08;1.22;;;;;;;10.05;84.65;100502.75;1677540;83;20976;-80
2022/11/05 08:11:56;;;;;;;2.27;1.40;;;;;;;10.07;84.68;100502.28;1675114;83;21059;-80
2022/11/05 08:14:41;;;;;;;4.15;1.20;;;;;;;10.12;84.74;100509.53;1664280;84;21121;-80
2022/11/05 08:17:26;;;;;;;3.17;1.00;;;;;;;10.14;84.69;100511.66;1676767;83;21481;-80
2022/11/05 08:20:13;;;;;;;5.70;1.60;;;;;;;10.19;84.78;100517.63;1684932;83;21488;-80
2022/11/05 08:22:58;;;;;;;;;;;;;;;10.24;84.72;100513.69;1686994;81;21110;-80
2022/11/05 08:25:43;;;;;;;3.90;1.32;;;;;;;10.28;84.84;100515.34;1681874;83;20651;-80
2022/11/05 08:28:27;;;;;;;5.87;1.60;;;;;;;10.31;84.77;100517.02;1679078;83;21555;-80
2022/11/05 08:31:14;;;;;;;8.38;1.65;;;;;;;10.37;84.80;100525.97;1691192;83;21098;-81
2022/11/05 08:33:59;;;;;;;4.53;1.77;;;;;;;10.41;84.79;100534.05;1675830;83;21677;-81
2022/11/05 08:36:45;;;;;;;8.13;1.75;;;;;;;10.42;84.77;100546.95;1678361;83;21031;-81
2022/11/05 08:39:30;;;;;;;6.37;2.22;;;;;;;10.46;84.81;100552.92;1675015;83;21657;-80
2022/11/05 08:42:15;;;;;;;12.88;2.65;;;;;;;10.49;84.84;100564.51;1651415;85;21044;-80
2022/11/05 08:45:00;;;;;;;9.00;2.27;;;;;;;10.47;84.68;100567.13;1651154;85;21495;-80
2022/11/05 08:47:45;;;;;;;5.67;2.70;;;;;;;10.50;84.77;100571.39;1654115;85;21136;-80
2022/11/05 08:50:31;;;;;;;6.40;3.22;;;;;;;10.49;84.79;100577.00;1678790;83;21136;-80
2022/11/05 08:53:17;;;;;;;7.10;3.10;;;;;;;10.50;84.82;100580.44;1674604;83;21070;-80
2022/11/05 08:56:02;;;;;;;6.87;3.52;;;;;;;10.48;84.81;100586.92;1658533;84;21107;-80
2022/11/05 08:58:47;;;;;;;10.25;3.50;;;;;;;10.47;84.80;100587.80;1659937;83;21028;-80
2022/11/05 09:01:33;;;;;;;9.75;3.52;;;;;;;10.46;84.80;100586.09;1640242;85;21584;-80
2022/11/05 09:04:18;;;;;;;9.75;4.25;;;;;;;10.45;84.78;100602.48;1673657;83;21587;-80
2022/11/05 09:07:03;;;;;;;6.85;3.92;;;;;;;10.43;84.80;100609.84;1661304;84;21087;-80
2022/11/05 09:09:48;;;;;;;11.10;4.28;;;;;;;10.46;84.86;100620.14;1645371;85;21639;-80
2022/11/05 09:12:33;;;;;;;9.60;4.37;;;;;;;10.47;84.87;100626.58;1677212;83;21100;-80
2022/11/05 09:15:18;;;;;;;7.22;4.58;;;;;;;10.51;84.94;100629.97;1674031;83;21016;-81
2022/11/05 09:18:07;;;;;;;10.18;5.25;;;;;;;10.57;84.91;100640.22;1646666;85;21587;-81
2022/11/05 09:20:52;;;;;;;9.78;5.00;;;;;;;10.61;84.84;100643.17;1677588;83;21014;-80
2022/11/05 09:23:38;;;;;;;9.30;5.40;;;;;;;10.64;84.82;100640.98;1648957;85;21127;-80
2022/11/05 09:26:23;;;;;;;10.20;5.62;;;;;;;10.68;84.83;100643.93;1676338;83;21060;-80
2022/11/05 09:29:08;;;;;;;9.65;4.70;;;;;;;10.73;84.87;100648.16;1683720;83;21047;-80
2022/11/05 09:31:53;;;;;;;9.18;4.78;;;;;;;10.76;84.86;100657.16;1653696;85;21016;-80
2022/11/05 09:34:38;;;;;;;10.05;5.40;;;;;;;10.81;84.89;100653.20;1670421;83;21075;-81
2022/11/05 09:37:23;;;;;;;11.93;5.40;;;;;;;10.84;84.86;100672.55;1639725;85;21020;-81
2022/11/05 09:40:14;;;;;;;12.00;5.60;;;;;;;10.85;84.84;100683.31;1669983;83;21015;-81
2022/11/05 09:43:00;;;;;;;14.87;5.72;;;;;;;10.90;84.89;100686.69;1644957;85;21583;-81
2022/11/05 09:45:50;;;;;;;14.73;6.15;;;;;;;10.93;84.86;100686.60;1671101;83;21147;-81
2022/11/05 09:48:37;;;;;;;13.70;5.53;;;;;;;10.94;84.81;100696.92;1642981;85;21099;-81
2022/11/05 09:51:22;;;;;;;12.00;5.90;;;;;;;10.96;84.85;100694.31;1673020;83;21020;-81
2022/11/05 09:54:09;;;;;;;7.83;5.20;;;;;;;10.98;84.83;100690.41;1644434;84;21128;-81
2022/11/05 09:56:55;;;;;;;12.90;5.72;;;;;;;10.98;84.85;100693.85;1678029;82;21675;-81
2022/11/05 09:59:44;;;;;;;10.60;5.28;;;;;;;10.97;84.81;100693.44;1671930;83;26702;-81
2022/11/05 10:02:46;;;;;;;12.43;5.70;;;;;;;10.95;84.81;100693.46;1673382;83;21513;-81
2022/11/05 10:05:34;;;;;;;9.73;5.45;;;;;;;10.93;84.80;100706.01;1652901;84;21049;-81
2022/11/05 10:08:27;;;;;;;10.18;6.00;;;;;;;10.87;84.75;100721.22;1644829;85;21071;-81
2022/11/05 10:11:26;;;;;;;19.30;7.30;;;;;;;10.86;84.79;100725.98;1672909;83;21055;-81
2022/11/05 10:14:28;;;;;;;11.85;5.37;;;;;;;10.84;84.82;100725.14;1674971;83;21108;-82
2022/11/05 10:17:26;;;;;;;10.75;5.95;;;;;;;10.82;84.78;100729.92;1647456;85;21056;-81
2022/11/05 10:20:34;;;;;;;13.22;6.30;;;;;;;10.81;84.83;100723.05;1674518;83;21108;-81
2022/11/05 10:23:21;;;;;;;9.93;5.75;;;;;;;10.84;84.86;100724.29;1674284;83;21166;-81
2022/11/05 10:26:14;;;;;;;9.48;5.78;;;;;;;10.88;84.86;100725.95;1647047;85;21108;-81
2022/11/05 10:28:59;;;;;;;16.40;7.83;;;;;;;10.92;84.86;100725.00;1671750;83;21097;-81
2022/11/05 10:31:44;;;;;;;14.17;6.77;;;;;;;10.97;84.87;100728.80;1674705;83;21051;-81
2022/11/05 10:34:33;;;;;;;15.43;6.65;;;;;;;10.99;84.78;100734.81;1672964;83;21377;-81
2022/11/05 10:37:21;;;;;;;10.23;5.83;;;;;;;11.02;84.81;100741.23;1643993;85;21076;-81
2022/11/05 10:40:39;;;;;;;13.85;7.40;;;;;;;11.06;84.79;100739.01;1674799;83;21135;-80
2022/11/05 10:43:49;;;;;;;11.70;6.15;;;;;;;11.07;84.77;100740.28;1645011;85;21587;-82
2022/11/05 10:47:02;;;;;;;8.93;5.58;;;;;;;11.11;84.82;100742.37;1674684;83;21088;-81
2022/11/05 10:50:00;;;;;;;16.75;6.03;;;;;;;11.13;84.71;100745.36;1647012;85;21348;-81
2022/11/05 10:53:05;;;;;;;10.30;5.40;;;;;;;11.14;84.77;100745.77;1672889;83;21048;-81
2022/11/05 10:55:52;;;;;;;12.18;6.03;;;;;;;11.14;84.72;100753.54;1647431;85;21080;-81
2022/11/05 10:58:40;;;;;;;13.55;5.30;;;;;;;11.17;84.72;100759.96;1647249;85;21537;-81
2022/11/05 11:01:26;;;;;;;12.07;6.90;;;;;;;11.17;84.72;100762.55;1673339;83;21558;-81
2022/11/05 11:04:25;;;;;;;10.80;5.87;;;;;;;11.21;84.76;100775.86;1645939;85;21373;-81
2022/11/05 11:07:23;;;;;;;10.13;6.42;;;;;;;11.23;84.65;100771.95;1674835;83;21104;-81
2022/11/05 11:10:16;;;;;;;13.88;6.25;;;;;;;11.22;84.63;100769.80;1668082;83;21064;-80
2022/11/05 11:13:02;;;;;;;14.28;6.33;;;;;;;11.22;84.68;100772.39;1671740;83;21584;-81
2022/11/05 11:15:49;;;;;;;12.73;8.15;;;;;;;11.23;84.69;100766.33;1677090;83;21091;-81
2022/11/05 11:18:40;;;;;;;14.28;7.50;;;;;;;11.23;84.69;100767.62;1643344;85;20933;-81
2022/11/05 11:21:27;;;;;;;14.73;7.85;;;;;;;11.24;84.62;100775.81;1680831;83;21095;-80
2022/11/05 11:24:23;;;;;;;15.93;8.98;;;;;;;11.24;84.63;100782.72;1641056;85;21096;-81
2022/11/05 11:27:13;;;;;;;17.07;8.65;;;;;;;11.24;84.60;100783.58;1656124;84;21148;-81
2022/11/05 11:30:04;;;;;;;15.43;8.98;;;;;;;11.25;84.61;100785.72;1644252;84;21058;-80
2022/11/05 11:32:49;;;;;;;16.15;9.95;;;;;;;11.26;84.61;100784.41;1646431;85;21523;-80
2022/11/05 11:35:37;;;;;;;15.85;8.90;;;;;;;11.25;84.55;100787.88;1651078;84;21068;-80
2022/11/05 11:38:23;;;;;;;15.20;8.90;;;;;;;11.26;84.58;100788.28;1649008;84;21607;-80
2022/11/05 11:41:12;;;;;;;;;;;;;;;11.25;84.55;100793.05;1626084;84;21098;-81
2022/11/05 11:44:02;;;;;;;15.32;8.63;;;;;;;11.24;84.39;100790.05;1660677;83;20641;-80
2022/11/05 11:46:51;;;;;;;18.57;8.55;;;;;;;11.22;84.50;100794.83;1644372;85;21516;-80
2022/11/05 11:49:47;;;;;;;13.35;8.35;;;;;;;11.24;84.49;100791.78;1670254;83;21092;-80
2022/11/05 11:52:35;;;;;;;13.25;8.43;;;;;;;11.24;84.51;100794.37;1650037;84;21002;-80
2022/11/05 11:55:21;;;;;;;11.65;8.45;;;;;;;11.23;84.36;100793.95;1651745;84;21073;-80
2022/11/05 11:58:08;;;;;;;10.75;8.28;;;;;;;11.21;84.39;100790.09;1655438;84;21071;-80
2022/11/05 12:01:07;;;;;;;10.88;7.53;;;;;;;11.24;84.49;100789.19;1668087;83;21519;-80
2022/11/05 12:03:57;;;;;;;14.13;7.85;;;;;;;11.24;84.40;100793.92;1667695;83;21548;-80
2022/11/05 12:07:00;;;;;;;16.62;7.97;;;;;;;11.25;84.38;100803.41;1653721;84;21147;-80
2022/11/05 12:10:17;;;;;;;13.83;7.40;;;;;;;11.26;84.39;100812.87;1652393;85;21109;-80
2022/11/05 12:13:26;;;;;;;16.17;6.42;;;;;;;11.26;84.35;100814.17;1672402;83;21144;-80
2022/11/05 12:16:50;;;;;;;13.50;6.58;;;;;;;11.24;84.18;100813.34;1643914;85;21660;-80
2022/11/05 12:19:59;;;;;;;14.63;6.28;;;;;;;11.23;84.22;100819.40;1663711;83;21532;-80
2022/11/05 12:23:18;;;;;;;9.75;5.92;;;;;;;11.23;84.22;100818.54;1637431;84;21104;-80
2022/11/05 12:26:21;;;;;;;17.12;6.33;;;;;;;11.23;84.18;100821.98;1660441;83;21132;-80
2022/11/05 12:29:32;;;;;;;13.53;5.90;;;;;;;11.26;84.20;100819.79;1667801;83;21529;-80
2022/11/05 12:32:41;;;;;;;13.38;5.75;;;;;;;11.25;84.14;100821.52;1671901;83;21338;-80
2022/11/05 12:36:07;;;;;;;11.20;4.78;;;;;;;11.24;84.07;100818.95;1615184;86;21068;-80
2022/11/05 12:39:25;;;;;;;14.53;4.83;;;;;;;11.22;84.00;100825.45;1625256;86;21563;-80
2022/11/05 12:42:21;;;;;;;5.97;4.05;;;;;;;11.20;84.00;100827.64;1625933;86;20988;-80
2022/11/05 12:45:23;;;;;;;11.73;4.55;;;;;;;11.18;83.94;100835.44;1627285;86;21642;-80
2022/11/05 12:48:45;;;;;;;10.55;4.35;;;;;;;11.20;83.95;100832.83;1641063;85;21505;-80
2022/11/05 12:52:04;;;;;;;10.60;4.53;;;;;;;11.19;83.89;100834.55;1624349;86;21608;-80
2022/11/05 12:55:06;;;;;;;11.63;3.98;;;;;;;11.16;83.88;100837.19;1666349;83;21105;-80
2022/11/05 12:57:59;;;;;;;17.10;4.72;;;;;;;11.17;83.89;100831.13;1677012;83;21108;-80
2022/11/05 13:00:49;;;;;;;10.55;4.00;;;;;;;11.21;83.91;100837.98;1625303;84;21119;-80
2022/11/05 13:03:49;;;;;;;8.38;3.65;;;;;;;11.23;83.86;100841.40;1669044;83;21108;-80
2022/11/05 13:06:42;;;;;;;7.40;3.42;;;;;;;11.25;83.86;100837.05;1673214;83;21458;-80
2022/11/05 13:09:41;;;;;;;9.50;3.42;;;;;;;11.27;83.84;100837.89;1666037;83;21494;-80
2022/11/05 13:12:29;;;;;;;10.55;3.87;;;;;;;11.28;83.79;100844.77;1672826;83;21119;-80
2022/11/05 13:15:41;;;;;;;6.03;3.30;;;;;;;11.32;83.81;100846.02;1674593;83;21053;-80
2022/11/05 13:18:31;;;;;;;10.75;3.00;;;;;;;11.32;83.74;100845.58;1615531;86;21838;-80
2022/11/05 13:21:19;;;;;;;11.10;3.22;;;;;;;11.33;83.69;100857.65;1626404;86;21497;-80
2022/11/05 13:24:21;;;;;;;15.10;3.40;;;;;;;11.34;83.73;100861.09;1673105;83;21111;-80
2022/11/05 13:27:36;;;;;;;10.28;2.92;;;;;;;11.34;83.66;100868.42;1650842;84;21084;-81
2022/11/05 13:30:36;;;;;;;12.23;3.08;;;;;;;11.34;83.64;100866.27;1675442;83;21611;-80
2022/11/05 13:33:37;;;;;;;9.53;2.37;;;;;;;11.31;83.56;100871.05;1655141;84;21139;-80
2022/11/05 13:39:48;;;;;;;9.68;2.70;;;;;;;11.29;83.52;100875.40;1680585;83;20945;-80
2022/11/05 13:42:47;;;;;;;12.03;2.12;;;;;;;11.24;83.42;100874.17;1676633;83;21060;-80
2022/11/05 13:46:11;;;;;;;7.35;2.00;;;;;;;11.23;83.44;100878.08;1679288;83;21902;-79
2022/11/05 13:49:10;;;;;;;8.30;2.17;;;;;;;11.22;83.41;100884.13;1676952;83;21060;-79
2022/11/05 13:52:00;;;;;;;13.22;2.90;;;;;;;11.18;83.37;100879.44;1670372;83;21012;-79
2022/11/05 13:54:53;;;;;;;7.47;2.35;;;;;;;11.16;83.33;100882.92;1676007;83;21148;-78
2022/11/05 13:58:01;;;;;;;11.80;3.22;;;;;;;11.13;83.34;100889.44;1669197;83;21116;-78
2022/11/05 14:01:01;;;;;;;7.12;2.17;;;;;;;11.12;83.32;100886.43;1673457;83;21035;-79
2022/11/05 14:03:52;;;;;;;12.58;2.50;;;;;;;11.08;83.25;100886.05;1672598;80;21000;-79
2022/11/05 14:06:37;;;;;;;10.48;2.67;;;;;;;11.05;83.26;100884.36;1679400;83;21408;-79
2022/11/05 14:09:26;;;;;;;11.33;2.75;;;;;;;11.04;83.23;100885.23;1678535;83;21076;-78
2022/11/05 14:12:22;;;;;;;11.48;3.10;;;;;;;11.03;83.25;100891.73;1680920;83;21655;-78
2022/11/05 14:15:21;;;;;;;8.90;2.42;;;;;;;11.02;83.24;100893.45;1684264;83;21056;-78
2022/11/05 14:18:39;;;;;;;8.48;2.10;;;;;;;10.99;83.21;100894.80;1678686;83;21135;-79